Main page
METAR-TAF:

METAR-TAF

Airports :

Kermanshah Airport

Kermanshah, Iran

latitude: 34-16N, longitude: 047-07E, elevation: 1320 m

Current weather observation

The report was made 23 minutes ago, at 19:00 UTC
Calm wind
Temperature 30°C
Humidity 9%
Pressure 1010 hPa
Visibility 10 km or more
Few clouds at a height of 9000 ft

METAR: OICC 251900Z 00000KT 9999 FEW090 30/M06 Q1009 A2982

Time: 23:53 (19:23 UTC)

Forecast

The report was made 1 hour and 53 minutes ago, at 17:30 UTC
Forecast valid from 25 at 18 UTC to 26 at 03 UTC
Wind 8 kt from the South/Southwest
Visibility: 7000 m
Few clouds at a height of 4000 ft
Scattered clouds at a height of 10000 ft
Temporary
from 25 at 21 UTC to 25 at 24 UTC
Wind 18 kt from the North/Northeast
Few clouds at a height of 3500 ft, Towering cumulus.
Scattered clouds at a height of 4000 ft
Broken clouds at a height of 10000 ft

TAF: OICC 251730Z 2518/2603 21008KT 7000 FEW040 SCT100 TEMPO 2521/2524 03018KT FEW035TCU SCT040 BKN100

Weather observations and forecasts of more than 4000 airports (METAR and TAF reports).

The available stations are represented by yellow and red dots on the map.

Hover mouse over dot to see the name of the station.

Then click to see weather observations and forecasts.

To change the map : click on the green buttons with a black cross to zoom in, on the green button with a dash to zoom out, or on the green arrows for adjacent maps.


METAR-TAF: